createdAt,value
2019-03-20T00:00:01.912Z,5.72
2019-03-20T00:02:28.415Z,5.80
2019-03-20T00:04:54.746Z,5.70
2019-03-20T00:07:21.125Z,4.87
2019-03-20T00:09:47.446Z,5.15
2019-03-20T00:12:13.666Z,4.95
2019-03-20T00:14:39.888Z,4.62
2019-03-20T00:17:06.121Z,4.70
2019-03-20T00:19:32.372Z,4.75
2019-03-20T00:21:58.602Z,4.83
2019-03-20T00:24:24.857Z,4.87
2019-03-20T00:26:51.116Z,4.37
2019-03-20T00:29:17.447Z,4.65
2019-03-20T00:31:43.745Z,4.20
2019-03-20T00:34:09.932Z,4.28
2019-03-20T00:36:36.234Z,4.40
2019-03-20T00:39:06.107Z,3.90
2019-03-20T00:41:32.339Z,4.55
2019-03-20T00:43:58.914Z,4.72
2019-03-20T00:46:25.141Z,5.10
2019-03-20T00:48:51.410Z,5.08
2019-03-20T00:51:17.564Z,5.30
2019-03-20T00:53:43.791Z,4.83
2019-03-20T00:56:10.061Z,4.75
2019-03-20T00:58:36.306Z,4.10
2019-03-20T01:01:02.795Z,3.70
2019-03-20T01:03:29.083Z,4.10
2019-03-20T01:05:55.311Z,4.50
2019-03-20T01:08:21.779Z,4.05
2019-03-20T01:10:48.154Z,4.00
2019-03-20T01:13:14.398Z,3.20
2019-03-20T01:15:40.727Z,3.45
2019-03-20T01:18:07.169Z,3.52
2019-03-20T01:20:33.412Z,3.47
2019-03-20T01:22:59.711Z,3.50
2019-03-20T01:25:26.677Z,3.30
2019-03-20T01:27:53.057Z,3.15
2019-03-20T01:30:34.263Z,3.37
2019-03-20T01:33:03.228Z,3.33
2019-03-20T01:35:29.589Z,3.37
2019-03-20T01:37:55.821Z,3.45
2019-03-20T01:40:22.081Z,3.58
2019-03-20T01:42:48.425Z,3.33
2019-03-20T01:45:14.816Z,3.90
2019-03-20T01:47:41.104Z,3.60
2019-03-20T01:50:07.271Z,3.30
2019-03-20T01:52:33.533Z,3.10
2019-03-20T01:54:59.894Z,3.02
2019-03-20T01:57:26.337Z,3.08
2019-03-20T01:59:52.587Z,3.22
2019-03-20T02:02:18.918Z,3.10
2019-03-20T02:04:45.204Z,3.65
2019-03-20T02:07:11.621Z,3.40
2019-03-20T02:09:37.972Z,3.80
2019-03-20T02:12:04.288Z,3.30
2019-03-20T02:14:30.573Z,3.27
2019-03-20T02:16:56.833Z,3.40
2019-03-20T02:19:24.968Z,3.33
2019-03-20T02:21:51.226Z,3.58
2019-03-20T02:24:17.493Z,3.30
2019-03-20T02:26:43.914Z,3.83
2019-03-20T02:29:10.194Z,3.50
2019-03-20T02:31:36.529Z,3.70
2019-03-20T02:34:02.995Z,3.08
2019-03-20T02:36:29.346Z,3.27
2019-03-20T02:38:55.626Z,3.58
2019-03-20T02:41:21.902Z,3.75
2019-03-20T02:43:48.139Z,4.00
2019-03-20T02:46:14.385Z,3.98
2019-03-20T02:48:40.687Z,3.52
2019-03-20T02:51:06.921Z,3.40
2019-03-20T02:53:33.264Z,3.55
2019-03-20T02:55:59.527Z,3.42
2019-03-20T02:58:25.934Z,3.50
2019-03-20T03:00:52.234Z,3.95
2019-03-20T03:03:18.689Z,3.35
2019-03-20T03:05:45.071Z,3.65
2019-03-20T03:08:11.442Z,4.10
2019-03-20T03:10:37.775Z,3.27
2019-03-20T03:13:04.260Z,3.37
2019-03-20T03:15:30.555Z,4.00
2019-03-20T03:17:56.932Z,3.80
2019-03-20T03:20:23.282Z,3.30
2019-03-20T03:22:49.561Z,3.87
2019-03-20T03:25:15.937Z,3.27
2019-03-20T03:27:42.473Z,3.70
2019-03-20T03:30:16.161Z,4.37
2019-03-20T03:32:42.621Z,4.50
2019-03-20T03:35:09.810Z,5.05
2019-03-20T03:37:37.445Z,5.75
2019-03-20T03:40:11.933Z,5.80
2019-03-20T03:42:38.289Z,7.05
2019-03-20T03:45:08.154Z,7.10
2019-03-20T03:47:34.512Z,6.87
2019-03-20T03:50:01.036Z,7.35
2019-03-20T03:52:27.303Z,9.40
2019-03-20T03:54:53.529Z,9.68
2019-03-20T03:57:20.157Z,10.00
2019-03-20T03:59:46.605Z,10.72
2019-03-20T04:02:12.836Z,11.93
2019-03-20T04:04:39.132Z,12.35
2019-03-20T04:07:05.886Z,12.13
2019-03-20T04:09:32.279Z,13.08
2019-03-20T04:12:00.229Z,12.85
2019-03-20T04:14:26.729Z,12.75
2019-03-20T04:16:53.272Z,13.62
2019-03-20T04:19:19.603Z,14.07
2019-03-20T04:21:45.938Z,15.15
2019-03-20T04:24:12.468Z,14.15
2019-03-20T04:26:38.870Z,14.47
2019-03-20T04:29:05.542Z,14.85
2019-03-20T04:31:31.844Z,15.40
2019-03-20T04:33:58.314Z,16.00
2019-03-20T04:36:24.593Z,16.30
2019-03-20T04:38:50.834Z,16.62
2019-03-20T04:41:17.108Z,17.10
2019-03-20T04:43:43.560Z,17.48
2019-03-20T04:46:09.820Z,17.45
2019-03-20T04:48:36.098Z,18.52
2019-03-20T04:51:02.508Z,17.65
2019-03-20T04:53:28.765Z,18.10
2019-03-20T04:55:55.154Z,18.62
2019-03-20T04:58:21.587Z,19.75
2019-03-20T05:00:47.951Z,19.92
2019-03-20T05:03:14.213Z,19.87
2019-03-20T05:05:40.518Z,20.52
2019-03-20T05:08:06.751Z,20.27
2019-03-20T05:10:33.166Z,20.50
2019-03-20T05:12:59.523Z,20.65
2019-03-20T05:15:25.816Z,20.68
2019-03-20T05:17:52.057Z,20.85
2019-03-20T05:20:19.254Z,21.65
2019-03-20T05:22:45.504Z,22.85
2019-03-20T05:25:12.233Z,21.73
2019-03-20T05:27:38.688Z,23.18
2019-03-20T05:30:11.422Z,22.62
2019-03-20T05:32:37.816Z,22.95
2019-03-20T05:35:05.612Z,23.25
2019-03-20T05:37:32.003Z,23.05
2019-03-20T05:39:58.395Z,22.90
2019-03-20T05:42:24.898Z,24.18
2019-03-20T05:44:51.188Z,25.08
2019-03-20T05:47:17.537Z,25.62
2019-03-20T05:49:43.952Z,24.02
2019-03-20T05:52:10.313Z,25.90
2019-03-20T05:54:36.547Z,25.25
2019-03-20T05:57:03.061Z,25.97
2019-03-20T05:59:29.323Z,25.12
2019-03-20T06:01:55.576Z,26.55
2019-03-20T06:04:21.848Z,26.85
2019-03-20T06:06:48.356Z,25.45
2019-03-20T06:09:14.615Z,26.07
2019-03-20T06:11:40.878Z,26.65
2019-03-20T06:14:07.151Z,26.85
2019-03-20T06:16:33.472Z,26.48
2019-03-20T06:18:59.874Z,26.40
2019-03-20T06:21:26.157Z,26.60
2019-03-20T06:23:52.459Z,26.00
2019-03-20T06:26:18.835Z,26.87
2019-03-20T06:28:45.193Z,26.57
2019-03-20T06:31:13.623Z,26.40
2019-03-20T06:33:40.959Z,25.95
2019-03-20T06:36:07.319Z,26.52
2019-03-20T06:38:33.633Z,27.32
2019-03-20T06:41:00.875Z,26.33
2019-03-20T06:43:27.152Z,26.23
2019-03-20T06:45:53.506Z,26.30
2019-03-20T06:48:19.762Z,26.85
2019-03-20T06:50:46.065Z,26.27
2019-03-20T06:53:12.589Z,25.40
2019-03-20T06:55:38.972Z,24.80
2019-03-20T06:58:05.952Z,25.43
2019-03-20T07:00:45.145Z,27.02
2019-03-20T07:03:41.437Z,26.85
2019-03-20T07:06:17.094Z,27.75
2019-03-20T07:08:58.788Z,27.30
2019-03-20T07:11:24.902Z,28.00
2019-03-20T07:13:51.144Z,27.70
2019-03-20T07:16:17.538Z,29.25
2019-03-20T07:18:43.819Z,29.12
2019-03-20T07:21:10.205Z,27.75
2019-03-20T07:23:36.506Z,29.00
2019-03-20T07:26:03.268Z,30.08
2019-03-20T07:28:29.538Z,29.80
2019-03-20T07:30:55.818Z,31.07
2019-03-20T07:33:22.105Z,30.08
2019-03-20T07:35:48.382Z,31.37
2019-03-20T07:38:14.677Z,31.30
2019-03-20T07:40:40.942Z,32.15
2019-03-20T07:43:09.230Z,30.57
2019-03-20T07:45:35.502Z,31.77
2019-03-20T07:48:01.903Z,32.75
2019-03-20T07:50:28.363Z,32.95
2019-03-20T07:52:54.785Z,32.53
2019-03-20T07:55:21.615Z,32.95
2019-03-20T07:57:48.014Z,33.28
2019-03-20T08:00:14.747Z,33.00
2019-03-20T08:02:41.207Z,33.75
2019-03-20T08:05:09.360Z,34.03
2019-03-20T08:07:35.847Z,33.67
2019-03-20T08:10:05.021Z,33.80
2019-03-20T08:12:31.393Z,34.60
2019-03-20T08:14:57.703Z,35.20
2019-03-20T08:17:23.965Z,34.85
2019-03-20T08:19:50.220Z,35.03
2019-03-20T08:22:16.695Z,35.38
2019-03-20T08:24:43.177Z,34.70
2019-03-20T08:27:09.455Z,33.25
2019-03-20T08:29:35.899Z,33.55
2019-03-20T08:32:02.374Z,32.80
2019-03-20T08:34:28.789Z,33.70
2019-03-20T08:36:55.148Z,33.85
2019-03-20T08:39:21.653Z,34.45
2019-03-20T08:41:48.007Z,33.85
2019-03-20T08:44:14.263Z,34.55
2019-03-20T08:46:40.652Z,35.23
2019-03-20T08:49:07.164Z,33.08
2019-03-20T08:51:33.525Z,33.08
2019-03-20T08:53:59.896Z,32.70
2019-03-20T08:56:26.293Z,33.55
2019-03-20T08:58:53.006Z,32.33
2019-03-20T09:01:28.090Z,32.10
2019-03-20T09:03:48.107Z,33.67
2019-03-20T09:06:14.481Z,33.38
2019-03-20T09:08:40.866Z,32.80
2019-03-20T09:11:07.343Z,32.83
2019-03-20T09:13:33.598Z,32.38
2019-03-20T09:15:59.846Z,30.62
2019-03-20T09:18:26.253Z,33.25
2019-03-20T09:20:52.606Z,31.17
2019-03-20T09:23:18.946Z,34.67
2019-03-20T09:25:45.189Z,32.70
2019-03-20T09:28:11.558Z,38.05
2019-03-20T09:30:39.725Z,30.82
2019-03-20T09:33:05.936Z,31.05
2019-03-20T09:35:34.898Z,30.85
2019-03-20T09:38:01.387Z,30.08
2019-03-20T09:40:28.178Z,29.02
2019-03-20T09:42:54.545Z,30.10
2019-03-20T09:45:21.917Z,29.42
2019-03-20T09:47:48.607Z,30.88
2019-03-20T09:50:19.499Z,29.85
2019-03-20T09:52:46.005Z,30.40
2019-03-20T09:55:13.773Z,28.95
2019-03-20T09:57:41.108Z,31.15
2019-03-20T10:00:19.281Z,29.77
2019-03-20T10:02:45.769Z,27.67
2019-03-20T10:05:12.372Z,29.32
2019-03-20T10:07:38.723Z,29.92
2019-03-20T10:10:08.835Z,29.45
2019-03-20T10:12:35.180Z,29.75
2019-03-20T10:15:01.694Z,31.00
2019-03-20T10:17:28.092Z,30.88
2019-03-20T10:19:54.605Z,31.70
2019-03-20T10:22:23.058Z,31.82
2019-03-20T10:24:49.322Z,31.10
2019-03-20T10:27:15.605Z,31.80
2019-03-20T10:29:42.128Z,31.25
2019-03-20T10:32:08.889Z,31.70
2019-03-20T10:34:39.483Z,30.72
2019-03-20T10:37:03.462Z,29.82
2019-03-20T10:39:29.717Z,30.10
2019-03-20T10:41:56.316Z,30.97
2019-03-20T10:44:22.748Z,30.52
2019-03-20T10:46:49.136Z,30.57
2019-03-20T10:49:15.449Z,29.90
2019-03-20T10:51:41.855Z,29.40
2019-03-20T10:54:08.232Z,30.97
2019-03-20T10:56:34.560Z,29.23
2019-03-20T10:59:00.928Z,27.35
2019-03-20T11:01:27.273Z,29.42
2019-03-20T11:03:53.623Z,31.42
2019-03-20T11:06:19.882Z,31.62
2019-03-20T11:08:46.212Z,30.32
2019-03-20T11:11:12.787Z,32.38
2019-03-20T11:13:39.062Z,31.48
2019-03-20T11:16:05.380Z,31.57
2019-03-20T11:18:31.691Z,31.68
2019-03-20T11:20:58.058Z,32.30
2019-03-20T11:23:24.444Z,31.42
2019-03-20T11:25:50.703Z,32.50
2019-03-20T11:28:17.533Z,32.70
2019-03-20T11:30:44.139Z,32.93
2019-03-20T11:33:10.508Z,31.77
2019-03-20T11:35:36.880Z,29.72
2019-03-20T11:38:03.479Z,31.82
2019-03-20T11:40:32.427Z,32.05
2019-03-20T11:42:58.980Z,31.95
2019-03-20T11:45:25.448Z,31.85
2019-03-20T11:47:51.982Z,32.13
2019-03-20T11:50:24.691Z,32.80
2019-03-20T11:52:51.102Z,31.77
2019-03-20T11:55:17.649Z,32.63
2019-03-20T11:57:44.076Z,32.58
2019-03-20T12:00:17.907Z,32.83
2019-03-20T12:02:44.813Z,33.05
2019-03-20T12:05:11.216Z,32.15
2019-03-20T12:07:37.677Z,32.83
2019-03-20T12:10:22.930Z,31.97
2019-03-20T12:12:49.510Z,32.50
2019-03-20T12:15:15.982Z,32.63
2019-03-20T12:17:42.359Z,32.00
2019-03-20T12:20:18.734Z,32.98
2019-03-20T12:22:46.048Z,33.53
2019-03-20T12:25:14.917Z,34.90
2019-03-20T12:27:41.286Z,35.33
2019-03-20T12:30:11.181Z,34.53
2019-03-20T12:32:37.571Z,34.92
2019-03-20T12:35:09.904Z,35.10
2019-03-20T12:37:36.265Z,32.15
2019-03-20T12:40:06.356Z,34.23
2019-03-20T12:42:32.718Z,35.63
2019-03-20T12:44:59.111Z,33.92
2019-03-20T12:47:25.378Z,34.35
2019-03-20T12:49:51.753Z,35.70
2019-03-20T12:52:18.012Z,33.55
2019-03-20T12:54:44.502Z,35.08
2019-03-20T12:57:11.008Z,34.43
2019-03-20T12:59:37.408Z,31.65
2019-03-20T13:02:03.914Z,34.25
2019-03-20T13:04:30.315Z,35.70
2019-03-20T13:06:57.001Z,33.80
2019-03-20T13:09:23.358Z,34.27
2019-03-20T13:11:49.984Z,34.45
2019-03-20T13:14:16.322Z,36.08
2019-03-20T13:16:42.546Z,33.50
2019-03-20T13:19:08.836Z,36.70
2019-03-20T13:21:35.202Z,35.23
2019-03-20T13:24:01.616Z,36.85
2019-03-20T13:26:28.080Z,35.88
2019-03-20T13:28:54.352Z,34.40
2019-03-20T13:31:22.212Z,39.18
2019-03-20T13:33:49.350Z,39.38
2019-03-20T13:36:16.051Z,39.03
2019-03-20T13:38:42.565Z,37.17
2019-03-20T13:41:08.934Z,41.10
2019-03-20T13:43:35.724Z,42.55
2019-03-20T13:46:02.197Z,43.55
2019-03-20T13:48:28.590Z,42.83
2019-03-20T13:50:54.981Z,42.27
2019-03-20T13:53:21.232Z,41.23
2019-03-20T13:55:47.851Z,42.08
2019-03-20T13:58:14.329Z,42.98
2019-03-20T14:00:40.772Z,42.40
2019-03-20T14:03:07.258Z,43.48
2019-03-20T14:05:33.987Z,43.08
2019-03-20T14:08:00.743Z,43.70
2019-03-20T14:10:28.228Z,43.60
2019-03-20T14:12:54.655Z,44.10
2019-03-20T14:15:21.233Z,42.00
2019-03-20T14:17:47.687Z,41.08
2019-03-20T14:20:28.697Z,41.00
2019-03-20T14:22:55.363Z,43.92
2019-03-20T14:25:22.691Z,44.48
2019-03-20T14:27:49.954Z,44.63
2019-03-20T14:30:24.841Z,43.87
2019-03-20T14:32:51.204Z,45.25
2019-03-20T14:35:17.589Z,44.88
2019-03-20T14:37:43.945Z,42.53
2019-03-20T14:40:12.895Z,42.38
2019-03-20T14:42:39.397Z,45.15
2019-03-20T14:45:09.139Z,44.83
2019-03-20T14:47:42.167Z,46.02
2019-03-20T14:50:07.532Z,45.48
2019-03-20T14:52:34.266Z,43.00
2019-03-20T14:55:00.751Z,44.05
2019-03-20T14:57:27.100Z,47.08
2019-03-20T14:59:53.543Z,46.48
2019-03-20T15:02:19.823Z,43.58
2019-03-20T15:04:46.349Z,46.25
2019-03-20T15:07:12.721Z,46.40
2019-03-20T15:09:38.973Z,44.15
2019-03-20T15:12:05.384Z,47.03
2019-03-20T15:14:31.689Z,45.50
2019-03-20T15:16:58.123Z,43.33
2019-03-20T15:19:24.491Z,41.30
2019-03-20T15:21:50.852Z,41.50
2019-03-20T15:24:17.139Z,44.45
2019-03-20T15:26:43.438Z,44.93
2019-03-20T15:29:09.809Z,41.45
2019-03-20T15:31:36.051Z,44.35
2019-03-20T15:34:02.469Z,44.40
2019-03-20T15:36:28.733Z,43.98
2019-03-20T15:38:55.045Z,43.70
2019-03-20T15:41:21.320Z,43.28
2019-03-20T15:43:47.697Z,44.70
2019-03-20T15:46:14.231Z,42.62
2019-03-20T15:48:40.536Z,43.15
2019-03-20T15:51:07.794Z,40.88
2019-03-20T15:53:34.127Z,45.40
2019-03-20T15:56:00.715Z,39.23
2019-03-20T15:58:27.011Z,43.28
2019-03-20T16:00:53.468Z,43.83
2019-03-20T16:03:26.305Z,42.80
2019-03-20T16:05:52.748Z,40.23
2019-03-20T16:08:19.873Z,44.15
2019-03-20T16:10:46.407Z,43.20
2019-03-20T16:13:12.694Z,44.08
2019-03-20T16:15:39.950Z,41.88
2019-03-20T16:18:06.343Z,44.08
2019-03-20T16:20:35.513Z,39.50
2019-03-20T16:23:01.855Z,43.40
2019-03-20T16:25:28.294Z,43.80
2019-03-20T16:27:54.562Z,44.27
2019-03-20T16:30:23.434Z,43.90
2019-03-20T16:32:49.877Z,44.00
2019-03-20T16:35:16.317Z,45.43
2019-03-20T16:37:42.709Z,44.53
2019-03-20T16:40:17.693Z,43.10
2019-03-20T16:42:44.285Z,42.45
2019-03-20T16:45:19.042Z,42.55
2019-03-20T16:47:45.527Z,42.13
2019-03-20T16:50:16.665Z,45.17
2019-03-20T16:52:43.137Z,45.63
2019-03-20T16:55:14.120Z,46.18
2019-03-20T16:57:40.703Z,45.90
2019-03-20T17:00:10.842Z,46.77
2019-03-20T17:02:37.712Z,44.00
2019-03-20T17:05:04.475Z,46.35
2019-03-20T17:07:30.777Z,45.78
2019-03-20T17:09:57.049Z,47.17
2019-03-20T17:12:25.368Z,48.40
2019-03-20T17:14:51.715Z,51.90
2019-03-20T17:17:17.994Z,48.90
2019-03-20T17:19:44.255Z,25.50
2019-03-20T17:22:10.624Z,44.53
2019-03-20T17:24:37.027Z,51.05
2019-03-20T17:27:03.726Z,50.40
2019-03-20T17:29:29.967Z,35.83
2019-03-20T17:31:56.459Z,29.65
2019-03-20T17:34:22.841Z,29.98
2019-03-20T17:36:49.249Z,37.60
2019-03-20T17:39:15.605Z,43.85
2019-03-20T17:41:41.847Z,45.58
2019-03-20T17:44:08.238Z,48.70
2019-03-20T17:46:34.608Z,50.60
2019-03-20T17:49:02.897Z,47.65
2019-03-20T17:51:29.309Z,50.70
2019-03-20T17:53:55.527Z,53.48
2019-03-20T17:56:21.786Z,51.50
2019-03-20T17:58:48.126Z,52.45
2019-03-20T18:01:14.408Z,48.08
2019-03-20T18:03:40.899Z,53.42
2019-03-20T18:06:07.196Z,48.23
2019-03-20T18:08:33.560Z,51.10
2019-03-20T18:10:59.989Z,53.68
2019-03-20T18:13:26.243Z,52.38
2019-03-20T18:15:52.511Z,52.95
2019-03-20T18:18:18.840Z,54.03
2019-03-20T18:20:45.155Z,49.98
2019-03-20T18:23:11.428Z,49.75
2019-03-20T18:25:39.036Z,49.90
2019-03-20T18:28:05.438Z,49.20
2019-03-20T18:30:36.791Z,53.45
2019-03-20T18:33:03.445Z,51.25
2019-03-20T18:35:29.688Z,51.90
2019-03-20T18:37:56.883Z,53.68
2019-03-20T18:40:26.907Z,52.85
2019-03-20T18:42:53.261Z,53.50
2019-03-20T18:45:22.052Z,54.85
2019-03-20T18:47:48.322Z,55.35
2019-03-20T18:50:16.828Z,49.88
2019-03-20T18:52:43.173Z,56.08
2019-03-20T18:55:11.437Z,57.08
2019-03-20T18:57:37.947Z,54.15
2019-03-20T19:00:10.771Z,56.73
2019-03-20T19:02:37.358Z,54.20
2019-03-20T19:05:07.443Z,56.50
2019-03-20T19:07:33.827Z,53.98
2019-03-20T19:10:00.515Z,56.42
2019-03-20T19:12:26.754Z,53.60
2019-03-20T19:14:53.029Z,55.80
2019-03-20T19:17:21.864Z,56.73
2019-03-20T19:19:48.360Z,56.42
2019-03-20T19:22:14.842Z,58.02
2019-03-20T19:24:41.187Z,58.08
2019-03-20T19:27:07.707Z,49.60
2019-03-20T19:29:34.012Z,54.10
2019-03-20T19:32:00.264Z,55.80
2019-03-20T19:34:26.653Z,58.75
2019-03-20T19:36:53.018Z,58.30
2019-03-20T19:39:19.276Z,48.45
2019-03-20T19:41:45.589Z,58.08
2019-03-20T19:44:11.936Z,58.10
2019-03-20T19:46:40.382Z,59.20
2019-03-20T19:49:09.880Z,58.90
2019-03-20T19:51:36.255Z,61.25
2019-03-20T19:54:03.128Z,56.40
2019-03-20T19:56:29.439Z,60.30
2019-03-20T19:58:56.050Z,60.95
2019-03-20T20:01:26.219Z,54.27
2019-03-20T20:03:52.623Z,61.73
2019-03-20T20:06:19.598Z,51.90
2019-03-20T20:08:46.249Z,53.40
2019-03-20T20:11:12.554Z,60.33
2019-03-20T20:13:39.018Z,54.30
2019-03-20T20:16:05.303Z,61.25
2019-03-20T20:18:32.348Z,59.98
2019-03-20T20:20:58.599Z,59.25
2019-03-20T20:23:25.858Z,57.17
2019-03-20T20:25:52.369Z,61.55
2019-03-20T20:28:18.838Z,58.95
2019-03-20T20:30:47.341Z,60.48
2019-03-20T20:33:13.715Z,59.63
2019-03-20T20:35:40.015Z,54.35
2019-03-20T20:38:06.487Z,56.98
2019-03-20T20:40:32.923Z,56.98
2019-03-20T20:42:59.352Z,58.52
2019-03-20T20:45:25.909Z,57.40
2019-03-20T20:47:52.127Z,59.20
2019-03-20T20:50:18.645Z,52.20
2019-03-20T20:52:45.434Z,53.13
2019-03-20T20:55:16.312Z,47.95
2019-03-20T20:57:42.723Z,51.55
2019-03-20T21:00:17.197Z,53.45
2019-03-20T21:02:43.669Z,55.60
2019-03-20T21:05:11.095Z,53.48
2019-03-20T21:07:37.455Z,50.12
2019-03-20T21:10:16.452Z,56.68
2019-03-20T21:12:51.211Z,51.70
2019-03-20T21:15:29.407Z,53.40
2019-03-20T21:18:14.570Z,50.83
2019-03-20T21:20:41.568Z,52.88
2019-03-20T21:23:21.008Z,51.45
2019-03-20T21:25:47.238Z,47.17
2019-03-20T21:28:37.195Z,51.92
2019-03-20T21:31:07.272Z,52.17
2019-03-20T21:33:49.259Z,47.25
2019-03-20T21:36:42.481Z,46.25
2019-03-20T21:39:08.854Z,47.67
2019-03-20T21:41:55.607Z,51.18
2019-03-20T21:44:54.980Z,48.08
2019-03-20T21:47:33.949Z,50.30
2019-03-20T21:50:04.050Z,50.83
2019-03-20T21:52:32.345Z,50.95
2019-03-20T21:55:20.790Z,48.42
2019-03-20T21:57:53.699Z,50.23
2019-03-20T22:00:29.704Z,50.78
2019-03-20T22:02:55.992Z,54.40
2019-03-20T22:05:42.568Z,55.15
2019-03-20T22:08:08.951Z,55.23
2019-03-20T22:10:41.740Z,58.17
2019-03-20T22:13:18.911Z,55.17
2019-03-20T22:16:10.969Z,57.05
2019-03-20T22:19:03.839Z,54.83
2019-03-20T22:21:55.965Z,54.58
2019-03-20T22:24:59.702Z,55.10
2019-03-20T22:27:44.947Z,51.53
2019-03-20T22:30:11.221Z,51.42
2019-03-20T22:33:10.630Z,49.42
2019-03-20T22:35:40.703Z,55.35
2019-03-20T22:38:10.743Z,52.23
2019-03-20T22:41:13.046Z,51.30
2019-03-20T22:43:43.490Z,46.58
2019-03-20T22:46:33.307Z,49.38
2019-03-20T22:49:32.301Z,52.40
2019-03-20T22:52:26.043Z,55.98
2019-03-20T22:55:24.938Z,54.90
2019-03-20T22:58:15.844Z,54.75
2019-03-20T23:00:43.689Z,57.20
2019-03-20T23:03:13.816Z,57.83
2019-03-20T23:05:40.185Z,60.30
2019-03-20T23:08:13.143Z,54.63
2019-03-20T23:10:39.650Z,59.40
2019-03-20T23:13:05.879Z,57.03
2019-03-20T23:15:32.100Z,60.73
2019-03-20T23:17:58.274Z,55.23
2019-03-20T23:20:26.949Z,59.13
2019-03-20T23:22:53.447Z,62.13
2019-03-20T23:25:20.003Z,61.30
2019-03-20T23:27:46.234Z,63.75
2019-03-20T23:30:16.183Z,68.97
2019-03-20T23:32:42.551Z,64.37
2019-03-20T23:35:08.901Z,69.90
2019-03-20T23:37:35.029Z,72.10
2019-03-20T23:40:01.361Z,74.25
2019-03-20T23:42:27.631Z,71.17
2019-03-20T23:44:53.885Z,73.30
2019-03-20T23:47:23.957Z,74.32
2019-03-20T23:49:50.219Z,77.12
2019-03-20T23:52:16.574Z,81.70
2019-03-20T23:54:44.245Z,79.72
2019-03-20T23:57:10.488Z,67.45
2019-03-20T23:59:36.782Z,74.58
